createdAt,value
2023-05-05T00:00:40.806Z,4.40
2023-05-05T00:03:07.611Z,4.57
2023-05-05T00:05:34.334Z,4.43
2023-05-05T00:08:00.990Z,3.57
2023-05-05T00:10:27.870Z,4.60
2023-05-05T00:12:54.656Z,4.17
2023-05-05T00:15:21.461Z,4.90
2023-05-05T00:17:48.558Z,4.37
2023-05-05T00:20:15.227Z,3.73
2023-05-05T00:22:41.897Z,3.70
2023-05-05T00:25:08.771Z,3.47
2023-05-05T00:27:35.980Z,4.57
2023-05-05T00:30:03.289Z,4.03
2023-05-05T00:32:29.973Z,4.37
2023-05-05T00:34:56.684Z,5.10
2023-05-05T00:37:23.386Z,4.63
2023-05-05T00:39:50.264Z,5.37
2023-05-05T00:42:17.223Z,3.57
2023-05-05T00:44:44.882Z,5.23
2023-05-05T00:47:12.689Z,4.27
2023-05-05T00:49:39.453Z,3.90
2023-05-05T00:52:09.407Z,5.30
2023-05-05T00:54:36.449Z,6.10
2023-05-05T00:57:03.246Z,4.77
2023-05-05T00:59:30.569Z,4.83
2023-05-05T01:01:57.460Z,3.70
2023-05-05T01:04:25.497Z,4.87
2023-05-05T01:07:11.040Z,4.67
2023-05-05T01:10:14.983Z,3.87
2023-05-05T01:12:53.557Z,5.83
2023-05-05T01:15:20.878Z,4.43
2023-05-05T01:17:52.868Z,4.40
2023-05-05T01:20:24.853Z,3.53
2023-05-05T01:22:56.977Z,4.20
2023-05-05T01:25:44.297Z,3.93
2023-05-05T01:28:17.103Z,5.63
2023-05-05T01:30:57.798Z,5.53
2023-05-05T01:33:26.059Z,4.27
2023-05-05T01:35:57.481Z,5.63
2023-05-05T01:38:44.425Z,3.30
2023-05-05T01:41:12.941Z,4.63
2023-05-05T01:43:41.053Z,5.07
2023-05-05T01:46:08.536Z,5.17
2023-05-05T01:48:36.858Z,4.90
2023-05-05T01:51:04.965Z,3.47
2023-05-05T01:53:32.473Z,4.07
2023-05-05T01:55:59.649Z,6.30
2023-05-05T01:58:27.252Z,4.37
2023-05-05T02:00:54.950Z,5.40
2023-05-05T02:03:23.291Z,4.43
2023-05-05T02:05:51.169Z,3.77
2023-05-05T02:08:18.569Z,5.10
2023-05-05T02:10:47.619Z,4.93
2023-05-05T02:13:15.392Z,4.83
2023-05-05T02:15:43.062Z,6.33
2023-05-05T02:18:10.797Z,5.13
2023-05-05T02:20:38.354Z,6.60
2023-05-05T02:23:07.641Z,4.57
2023-05-05T02:25:45.529Z,6.23
2023-05-05T02:28:16.967Z,5.83
2023-05-05T02:30:43.874Z,5.23
2023-05-05T02:33:11.491Z,3.80
2023-05-05T02:35:39.824Z,5.83
2023-05-05T02:38:12.326Z,4.63
2023-05-05T02:40:42.394Z,5.70
2023-05-05T02:43:11.426Z,4.60
2023-05-05T02:45:38.486Z,3.70
2023-05-05T02:48:05.854Z,4.17
2023-05-05T02:50:37.167Z,6.57
2023-05-05T02:53:14.805Z,5.30
2023-05-05T02:55:55.885Z,4.37
2023-05-05T02:58:31.210Z,4.10
2023-05-05T03:00:59.864Z,4.07
2023-05-05T03:03:40.886Z,5.57
2023-05-05T03:06:21.000Z,4.70
2023-05-05T03:08:56.008Z,4.87
2023-05-05T03:11:43.163Z,5.83
2023-05-05T03:14:18.365Z,4.23
2023-05-05T03:16:47.457Z,6.03
2023-05-05T03:19:16.441Z,4.07
2023-05-05T03:21:43.380Z,5.47
2023-05-05T03:24:17.131Z,5.67
2023-05-05T03:26:49.582Z,4.93
2023-05-05T03:29:19.316Z,4.33
2023-05-05T03:31:46.246Z,5.57
2023-05-05T03:34:13.209Z,4.93
2023-05-05T03:36:45.016Z,3.53
2023-05-05T03:39:14.409Z,3.83
2023-05-05T03:41:41.328Z,4.60
2023-05-05T03:44:09.641Z,4.47
2023-05-05T03:46:37.119Z,5.13
2023-05-05T03:49:05.710Z,4.60
2023-05-05T03:51:32.833Z,5.23
2023-05-05T03:54:00.083Z,6.30
2023-05-05T03:56:27.129Z,5.57
2023-05-05T03:58:53.796Z,4.00
2023-05-05T04:01:20.885Z,4.20
2023-05-05T04:03:47.893Z,5.87
2023-05-05T04:06:14.666Z,3.60
2023-05-05T04:08:41.447Z,4.17
2023-05-05T04:11:08.186Z,6.73
2023-05-05T04:13:36.033Z,5.77
2023-05-05T04:16:03.287Z,5.50
2023-05-05T04:18:30.317Z,6.97
2023-05-05T04:20:57.344Z,8.00
2023-05-05T04:23:25.117Z,4.33
2023-05-05T04:25:51.857Z,6.50
2023-05-05T04:28:20.978Z,4.53
2023-05-05T04:30:48.566Z,5.00
2023-05-05T04:33:15.480Z,4.10
2023-05-05T04:35:42.382Z,4.93
2023-05-05T04:38:09.645Z,4.87
2023-05-05T04:40:42.706Z,3.73
2023-05-05T04:43:10.682Z,5.80
2023-05-05T04:45:37.479Z,3.90
2023-05-05T04:48:05.274Z,5.23
2023-05-05T04:50:32.164Z,5.23
2023-05-05T04:52:58.927Z,4.60
2023-05-05T04:55:25.651Z,3.90
2023-05-05T04:57:52.314Z,6.17
2023-05-05T05:00:19.025Z,4.90
2023-05-05T05:02:45.887Z,5.33
2023-05-05T05:05:12.837Z,4.70
2023-05-05T05:07:39.517Z,4.90
2023-05-05T05:10:06.558Z,3.70
2023-05-05T05:12:33.512Z,3.97
2023-05-05T05:15:00.269Z,5.43
2023-05-05T05:17:27.118Z,9.33
2023-05-05T05:19:55.237Z,5.50
2023-05-05T05:22:22.348Z,6.23
2023-05-05T05:24:49.120Z,5.27
2023-05-05T05:27:16.032Z,6.13
2023-05-05T05:29:45.648Z,6.07
2023-05-05T05:32:12.430Z,4.17
2023-05-05T05:34:39.325Z,4.83
2023-05-05T05:37:07.919Z,5.20
2023-05-05T05:39:34.604Z,8.03
2023-05-05T05:42:02.644Z,5.20
2023-05-05T05:44:29.681Z,8.00
2023-05-05T05:46:56.645Z,4.37
2023-05-05T05:49:24.171Z,4.00
2023-05-05T05:51:51.389Z,4.47
2023-05-05T05:54:18.373Z,5.63
2023-05-05T05:56:45.106Z,7.30
2023-05-05T05:59:11.887Z,4.03
2023-05-05T06:01:40.443Z,4.53
2023-05-05T06:04:07.883Z,3.90
2023-05-05T06:06:34.776Z,5.00
2023-05-05T06:09:01.499Z,4.33
2023-05-05T06:11:29.668Z,6.37
2023-05-05T06:13:56.445Z,4.50
2023-05-05T06:16:23.185Z,3.90
2023-05-05T06:18:49.849Z,5.03
2023-05-05T06:21:16.552Z,7.20
2023-05-05T06:23:43.264Z,3.47
2023-05-05T06:26:09.929Z,3.37
2023-05-05T06:28:36.692Z,4.87
2023-05-05T06:31:03.380Z,5.43
2023-05-05T06:33:30.095Z,6.53
2023-05-05T06:35:56.761Z,4.60
2023-05-05T06:38:23.456Z,4.03
2023-05-05T06:40:50.376Z,4.47
2023-05-05T06:43:17.304Z,5.03
2023-05-05T06:45:51.584Z,5.23
2023-05-05T06:48:18.354Z,4.90
2023-05-05T06:50:45.046Z,9.63
2023-05-05T06:53:11.693Z,7.10
2023-05-05T06:55:38.626Z,6.33
2023-05-05T06:58:05.337Z,7.60
2023-05-05T07:00:32.020Z,8.13
2023-05-05T07:02:58.732Z,4.97
2023-05-05T07:05:25.743Z,5.87
2023-05-05T07:07:53.479Z,5.90
2023-05-05T07:10:21.436Z,6.23
2023-05-05T07:12:48.346Z,7.23
2023-05-05T07:15:26.917Z,5.60
2023-05-05T07:17:55.856Z,4.57
2023-05-05T07:20:22.507Z,5.63
2023-05-05T07:22:49.204Z,4.87
2023-05-05T07:25:16.071Z,7.00
2023-05-05T07:27:42.921Z,4.03
2023-05-05T07:30:16.298Z,4.60
2023-05-05T07:32:44.232Z,7.10
2023-05-05T07:35:11.183Z,4.70
2023-05-05T07:37:37.900Z,6.17
2023-05-05T07:40:04.865Z,7.30
2023-05-05T07:42:31.578Z,7.20
2023-05-05T07:44:58.364Z,5.27
2023-05-05T07:47:25.256Z,5.87
2023-05-05T07:49:52.111Z,6.07
2023-05-05T07:52:19.482Z,6.17
2023-05-05T07:54:48.502Z,6.47
2023-05-05T07:57:15.347Z,4.87
2023-05-05T07:59:43.848Z,5.43
2023-05-05T08:02:12.560Z,7.20
2023-05-05T08:04:42.918Z,5.57
2023-05-05T08:07:09.712Z,6.13
2023-05-05T08:09:36.814Z,6.17
2023-05-05T08:12:03.777Z,5.60
2023-05-05T08:14:30.725Z,6.47
2023-05-05T08:16:57.396Z,5.13
2023-05-05T08:19:29.388Z,6.20
2023-05-05T08:21:58.844Z,6.33
2023-05-05T08:24:27.408Z,6.53
2023-05-05T08:26:55.170Z,6.83
2023-05-05T08:29:22.272Z,4.63
2023-05-05T08:31:49.050Z,5.10
2023-05-05T08:34:15.821Z,5.93
2023-05-05T08:36:42.534Z,7.20
2023-05-05T08:39:09.219Z,7.37
2023-05-05T08:41:35.906Z,5.37
2023-05-05T08:44:02.626Z,5.90
2023-05-05T08:46:30.876Z,5.50
2023-05-05T08:48:57.883Z,4.83
2023-05-05T08:51:26.475Z,4.60
2023-05-05T08:54:02.594Z,5.23
2023-05-05T08:56:37.513Z,6.50
2023-05-05T08:59:04.303Z,4.97
2023-05-05T09:01:32.253Z,5.80
2023-05-05T09:03:59.182Z,5.00
2023-05-05T09:06:27.220Z,5.60
2023-05-05T09:08:53.893Z,6.27
2023-05-05T09:11:21.463Z,7.37
2023-05-05T09:13:48.319Z,6.27
2023-05-05T09:16:15.149Z,7.20
2023-05-05T09:18:42.667Z,8.57
2023-05-05T09:21:18.909Z,5.50
2023-05-05T09:24:08.572Z,5.60
2023-05-05T09:26:40.931Z,7.00
2023-05-05T09:29:07.696Z,6.13
2023-05-05T09:31:35.072Z,22.20
2023-05-05T09:34:12.788Z,9.47
2023-05-05T09:36:47.542Z,5.87
2023-05-05T09:39:18.420Z,6.70
2023-05-05T09:41:45.471Z,7.10
2023-05-05T09:44:12.655Z,6.20
2023-05-05T09:46:49.119Z,6.83
2023-05-05T09:49:18.628Z,5.40
2023-05-05T09:51:46.269Z,5.97
2023-05-05T09:54:23.095Z,7.23
2023-05-05T09:56:50.697Z,5.93
2023-05-05T09:59:17.585Z,5.63
2023-05-05T10:01:44.480Z,6.47
2023-05-05T10:04:27.891Z,5.60
2023-05-05T10:06:55.537Z,5.33
2023-05-05T10:09:22.878Z,5.93
2023-05-05T10:11:49.666Z,7.30
2023-05-05T10:14:17.538Z,8.23
2023-05-05T10:16:51.434Z,5.80
2023-05-05T10:19:19.793Z,6.03
2023-05-05T10:21:53.489Z,5.67
2023-05-05T10:24:30.676Z,6.23
2023-05-05T10:26:58.712Z,7.00
2023-05-05T10:29:44.232Z,5.67
2023-05-05T10:32:52.939Z,6.30
2023-05-05T10:35:22.040Z,7.03
2023-05-05T10:37:49.084Z,6.20
2023-05-05T10:40:17.602Z,6.37
2023-05-05T10:42:44.606Z,6.63
2023-05-05T10:45:11.296Z,7.73
2023-05-05T10:47:40.049Z,6.00
2023-05-05T10:50:07.370Z,6.27
2023-05-05T10:52:40.387Z,6.20
2023-05-05T10:55:07.033Z,6.43
2023-05-05T10:57:36.908Z,6.83
2023-05-05T11:00:04.365Z,6.50
2023-05-05T11:02:31.504Z,5.77
2023-05-05T11:05:05.386Z,6.97
2023-05-05T11:07:34.232Z,6.30
2023-05-05T11:10:01.905Z,5.77
2023-05-05T11:12:32.753Z,7.47
2023-05-05T11:15:17.957Z,7.07
2023-05-05T11:17:46.287Z,5.70
2023-05-05T11:20:13.015Z,6.30
2023-05-05T11:22:58.724Z,5.97
2023-05-05T11:25:34.292Z,6.67
2023-05-05T11:28:04.675Z,7.13
2023-05-05T11:30:31.405Z,6.20
2023-05-05T11:33:16.921Z,6.77
2023-05-05T11:36:07.197Z,7.27
2023-05-05T11:38:37.224Z,6.87
2023-05-05T11:41:07.920Z,7.33
2023-05-05T11:43:37.688Z,6.80
2023-05-05T11:46:14.041Z,5.57
2023-05-05T11:48:45.918Z,5.17
2023-05-05T11:51:16.058Z,5.40
2023-05-05T11:53:46.583Z,6.30
2023-05-05T11:56:19.148Z,5.27
2023-05-05T11:58:46.649Z,5.00
2023-05-05T12:01:13.447Z,5.77
2023-05-05T12:03:40.567Z,5.23
2023-05-05T12:06:07.906Z,5.43
2023-05-05T12:08:41.312Z,5.17
2023-05-05T12:11:09.307Z,5.27
2023-05-05T12:13:36.141Z,5.40
2023-05-05T12:16:09.360Z,5.47
2023-05-05T12:18:36.251Z,6.40
2023-05-05T12:21:12.440Z,5.80
2023-05-05T12:23:39.156Z,6.57
2023-05-05T12:26:07.529Z,6.90
2023-05-05T12:28:48.043Z,5.80
2023-05-05T12:31:15.866Z,5.47
2023-05-05T12:33:42.826Z,6.63
2023-05-05T12:36:09.585Z,8.53
2023-05-05T12:38:36.325Z,5.37
2023-05-05T12:41:03.086Z,5.63
2023-05-05T12:43:33.188Z,5.37
2023-05-05T12:46:06.408Z,5.10
2023-05-05T12:48:33.865Z,6.00
2023-05-05T12:51:10.449Z,5.30
2023-05-05T12:53:37.159Z,5.33
2023-05-05T12:56:03.862Z,8.40
2023-05-05T12:58:46.256Z,6.43
2023-05-05T13:01:13.104Z,5.30
2023-05-05T13:03:39.918Z,5.33
2023-05-05T13:06:22.109Z,5.50
2023-05-05T13:08:48.743Z,7.00
2023-05-05T13:11:15.820Z,5.87
2023-05-05T13:13:43.449Z,6.40
2023-05-05T13:16:10.508Z,10.80
2023-05-05T13:18:47.093Z,8.17
2023-05-05T13:21:13.768Z,5.83
2023-05-05T13:23:46.704Z,7.17
2023-05-05T13:26:13.519Z,5.13
2023-05-05T13:28:40.771Z,5.27
2023-05-05T13:31:07.904Z,5.13
2023-05-05T13:33:34.788Z,5.00
2023-05-05T13:36:02.011Z,7.03
2023-05-05T13:38:28.941Z,4.10
2023-05-05T13:40:55.657Z,4.50
2023-05-05T13:43:22.352Z,4.60
2023-05-05T13:45:49.085Z,5.50
2023-05-05T13:48:15.909Z,4.33
2023-05-05T13:50:42.601Z,3.80
2023-05-05T13:53:09.752Z,4.00
2023-05-05T13:55:36.627Z,4.37
2023-05-05T13:58:03.252Z,3.80
2023-05-05T14:00:30.082Z,3.77
2023-05-05T14:02:56.912Z,3.43
2023-05-05T14:05:23.803Z,4.00
2023-05-05T14:07:50.458Z,3.50
2023-05-05T14:10:17.153Z,4.90
2023-05-05T14:12:44.298Z,3.47
2023-05-05T14:15:11.672Z,3.00
2023-05-05T14:17:38.527Z,3.60
2023-05-05T14:20:05.680Z,5.33
2023-05-05T14:22:32.994Z,6.33
2023-05-05T14:24:59.689Z,6.30
2023-05-05T14:27:26.315Z,6.73
2023-05-05T14:29:52.962Z,8.07
2023-05-05T14:32:19.611Z,6.10
2023-05-05T14:34:47.734Z,6.03
2023-05-05T14:37:16.392Z,5.90
2023-05-05T14:39:43.076Z,3.90
2023-05-05T14:42:09.724Z,4.43
2023-05-05T14:44:36.545Z,5.20
2023-05-05T14:47:03.281Z,4.13
2023-05-05T14:49:30.102Z,4.27
2023-05-05T14:51:56.902Z,3.53
2023-05-05T14:54:28.339Z,3.43
2023-05-05T14:56:55.926Z,5.87
2023-05-05T14:59:22.660Z,3.87
2023-05-05T15:01:49.352Z,4.13
2023-05-05T15:04:16.115Z,6.73
2023-05-05T15:06:42.839Z,5.93
2023-05-05T15:09:09.484Z,3.87
2023-05-05T15:11:36.154Z,5.07
2023-05-05T15:14:02.850Z,4.40
2023-05-05T15:16:29.679Z,3.57
2023-05-05T15:18:56.652Z,5.00
2023-05-05T15:21:23.346Z,3.33
2023-05-05T15:23:49.976Z,3.43
2023-05-05T15:26:16.616Z,4.10
2023-05-05T15:28:43.252Z,3.50
2023-05-05T15:31:10.120Z,3.33
2023-05-05T15:33:36.836Z,3.67
2023-05-05T15:36:03.565Z,4.53
2023-05-05T15:38:30.309Z,4.00
2023-05-05T15:40:57.088Z,6.03
2023-05-05T15:43:23.903Z,4.40
2023-05-05T15:45:53.606Z,4.27
2023-05-05T15:48:20.394Z,3.93
2023-05-05T15:50:47.108Z,4.23
2023-05-05T15:53:13.732Z,4.43
2023-05-05T15:55:40.607Z,5.10
2023-05-05T15:58:07.300Z,4.47
2023-05-05T16:00:33.918Z,4.00
2023-05-05T16:03:00.773Z,3.70
2023-05-05T16:05:27.514Z,7.47
2023-05-05T16:07:54.132Z,5.20
2023-05-05T16:10:20.864Z,4.20
2023-05-05T16:12:47.598Z,3.90
2023-05-05T16:15:14.273Z,5.23
2023-05-05T16:17:40.966Z,4.57
2023-05-05T16:20:07.842Z,4.50
2023-05-05T16:22:34.529Z,5.00
2023-05-05T16:25:01.158Z,5.23
2023-05-05T16:27:27.821Z,5.67
2023-05-05T16:29:54.536Z,4.50
2023-05-05T16:32:21.162Z,5.50
2023-05-05T16:34:47.763Z,6.03
2023-05-05T16:37:14.434Z,4.40
2023-05-05T16:39:41.474Z,5.10
2023-05-05T16:42:08.185Z,5.07
2023-05-05T16:44:34.905Z,6.20
2023-05-05T16:47:01.705Z,4.40
2023-05-05T16:49:28.561Z,4.20
2023-05-05T16:51:55.472Z,4.37
2023-05-05T16:54:22.123Z,4.10
2023-05-05T16:56:48.930Z,4.80
2023-05-05T16:59:16.895Z,3.63
2023-05-05T17:01:43.617Z,4.83
2023-05-05T17:04:10.965Z,3.70
2023-05-05T17:06:37.597Z,4.50
2023-05-05T17:09:06.082Z,4.27
2023-05-05T17:11:32.730Z,4.17
2023-05-05T17:13:59.391Z,4.23
2023-05-05T17:16:26.110Z,4.20
2023-05-05T17:18:53.685Z,4.27
2023-05-05T17:21:20.383Z,8.67
2023-05-05T17:23:47.039Z,5.77
2023-05-05T17:26:13.742Z,5.10
2023-05-05T17:28:40.914Z,4.90
2023-05-05T17:31:07.797Z,4.40
2023-05-05T17:33:34.454Z,6.13
2023-05-05T17:36:01.194Z,4.47
2023-05-05T17:38:27.856Z,6.13
2023-05-05T17:40:54.500Z,4.40
2023-05-05T17:43:21.157Z,4.43
2023-05-05T17:45:47.869Z,5.03
2023-05-05T17:48:14.569Z,5.77
2023-05-05T17:50:43.128Z,5.80
2023-05-05T17:53:10.683Z,4.87
2023-05-05T17:55:37.611Z,6.00
2023-05-05T17:58:04.421Z,5.70
2023-05-05T18:00:31.109Z,5.50
2023-05-05T18:02:57.949Z,7.00
2023-05-05T18:05:24.867Z,9.50
2023-05-05T18:07:51.611Z,8.97
2023-05-05T18:10:18.427Z,9.20
2023-05-05T18:12:45.106Z,9.80
2023-05-05T18:15:12.335Z,10.00
2023-05-05T18:17:39.189Z,155.73
2023-05-05T18:20:06.926Z,31.80
2023-05-05T18:22:34.262Z,11.47
2023-05-05T18:25:00.994Z,18.60
2023-05-05T18:27:27.979Z,10.10
2023-05-05T18:29:54.915Z,52.43
2023-05-05T18:32:21.877Z,14.93
2023-05-05T18:34:48.617Z,381.00
2023-05-05T18:37:15.335Z,191.93
2023-05-05T18:39:43.899Z,180.77
2023-05-05T18:42:12.677Z,1738.63
2023-05-05T18:44:39.555Z,1137.57
2023-05-05T18:47:06.811Z,525.67
2023-05-05T18:49:33.946Z,437.47
2023-05-05T18:52:00.853Z,162.20
2023-05-05T18:54:27.587Z,506.43
2023-05-05T18:56:54.368Z,64.43
2023-05-05T18:59:21.655Z,18.23
2023-05-05T19:01:48.325Z,13.77
2023-05-05T19:04:29.365Z,10.03
2023-05-05T19:06:57.517Z,9.60
2023-05-05T19:09:24.218Z,9.73
2023-05-05T19:11:50.896Z,9.80
2023-05-05T19:14:17.698Z,10.90
2023-05-05T19:16:44.642Z,9.30
2023-05-05T19:19:11.341Z,9.63
2023-05-05T19:21:38.376Z,9.63
2023-05-05T19:24:07.164Z,9.10
2023-05-05T19:26:33.962Z,8.63
2023-05-05T19:29:00.817Z,8.40
2023-05-05T19:31:27.871Z,6.47
2023-05-05T19:33:59.207Z,4.07
2023-05-05T19:36:25.904Z,4.17
2023-05-05T19:38:53.516Z,4.73
2023-05-05T19:41:20.855Z,4.17
2023-05-05T19:43:47.628Z,4.53
2023-05-05T19:46:14.460Z,4.40
2023-05-05T19:48:41.266Z,4.00
2023-05-05T19:51:07.996Z,3.47
2023-05-05T19:53:34.660Z,3.40
2023-05-05T19:56:01.322Z,3.40
2023-05-05T19:58:28.057Z,4.10
2023-05-05T20:00:54.756Z,3.30
2023-05-05T20:03:21.693Z,4.27
2023-05-05T20:05:48.412Z,3.00
2023-05-05T20:08:15.054Z,3.50
2023-05-05T20:10:41.685Z,3.70
2023-05-05T20:13:08.380Z,5.53
2023-05-05T20:15:35.193Z,3.20
2023-05-05T20:18:01.889Z,3.20
2023-05-05T20:20:28.583Z,2.97
2023-05-05T20:22:55.297Z,2.90
2023-05-05T20:25:21.982Z,3.13
2023-05-05T20:27:48.689Z,3.30
2023-05-05T20:30:15.438Z,2.80
2023-05-05T20:32:42.150Z,2.37
2023-05-05T20:35:09.274Z,3.60
2023-05-05T20:37:35.919Z,3.47
2023-05-05T20:40:02.638Z,6.03
2023-05-05T20:42:29.623Z,3.00
2023-05-05T20:44:56.590Z,5.07
2023-05-05T20:47:24.012Z,3.83
2023-05-05T20:49:52.039Z,4.10
2023-05-05T20:52:18.806Z,4.73
2023-05-05T20:54:45.452Z,4.27
2023-05-05T20:57:12.204Z,3.13
2023-05-05T20:59:39.019Z,2.43
2023-05-05T21:02:05.883Z,2.70
2023-05-05T21:04:32.730Z,2.77
2023-05-05T21:06:59.412Z,3.93
2023-05-05T21:09:26.150Z,3.30
2023-05-05T21:11:52.802Z,4.03
2023-05-05T21:14:19.519Z,3.60
2023-05-05T21:16:46.422Z,3.57
2023-05-05T21:19:13.151Z,4.57
2023-05-05T21:21:39.832Z,3.07
2023-05-05T21:24:08.093Z,3.53
2023-05-05T21:26:35.026Z,3.47
2023-05-05T21:29:01.803Z,4.20
2023-05-05T21:31:28.491Z,5.80
2023-05-05T21:33:55.312Z,3.07
2023-05-05T21:36:21.985Z,2.67
2023-05-05T21:38:49.335Z,3.50
2023-05-05T21:41:16.660Z,2.60
2023-05-05T21:43:43.288Z,3.60
2023-05-05T21:46:10.059Z,3.77
2023-05-05T21:48:38.603Z,2.47
2023-05-05T21:51:05.568Z,2.73
2023-05-05T21:53:32.194Z,4.23
2023-05-05T21:55:58.996Z,2.53
2023-05-05T21:58:25.689Z,2.53
2023-05-05T22:00:52.415Z,3.77
2023-05-05T22:03:19.281Z,2.70
2023-05-05T22:05:46.048Z,4.73
2023-05-05T22:08:12.772Z,3.10
2023-05-05T22:10:39.502Z,3.50
2023-05-05T22:13:06.414Z,3.40
2023-05-05T22:15:45.399Z,3.80
2023-05-05T22:18:13.951Z,5.30
2023-05-05T22:20:40.719Z,6.80
2023-05-05T22:23:07.496Z,11.83
2023-05-05T22:25:34.294Z,9.60
2023-05-05T22:28:00.964Z,7.00
2023-05-05T22:30:27.660Z,4.87
2023-05-05T22:32:54.877Z,5.97
2023-05-05T22:35:21.630Z,10.83
2023-05-05T22:37:48.322Z,8.37
2023-05-05T22:40:14.977Z,7.90
2023-05-05T22:42:41.656Z,22.10
2023-05-05T22:45:09.464Z,13.73
2023-05-05T22:47:36.424Z,6.43
2023-05-05T22:50:03.130Z,3.80
2023-05-05T22:52:29.885Z,4.97
2023-05-05T22:54:56.582Z,3.53
2023-05-05T22:57:23.453Z,3.47
2023-05-05T22:59:50.277Z,4.80
2023-05-05T23:02:16.955Z,4.27
2023-05-05T23:04:44.720Z,4.50
2023-05-05T23:07:12.280Z,4.50
2023-05-05T23:09:39.106Z,4.73
2023-05-05T23:12:06.069Z,4.70
2023-05-05T23:14:32.744Z,4.50
2023-05-05T23:16:59.649Z,4.13
2023-05-05T23:19:26.967Z,4.40
2023-05-05T23:21:53.940Z,5.60
2023-05-05T23:24:21.553Z,3.70
2023-05-05T23:26:48.333Z,4.33
2023-05-05T23:29:15.016Z,4.90
2023-05-05T23:31:41.665Z,3.60
2023-05-05T23:34:08.651Z,5.47
2023-05-05T23:36:35.362Z,4.40
2023-05-05T23:39:01.972Z,4.00
2023-05-05T23:41:28.663Z,4.17
2023-05-05T23:43:56.127Z,4.20
2023-05-05T23:46:22.980Z,5.17
2023-05-05T23:48:50.308Z,4.50
2023-05-05T23:51:17.240Z,3.80
2023-05-05T23:53:43.889Z,4.30
2023-05-05T23:56:10.621Z,4.53
2023-05-05T23:58:37.358Z,3.73
